Terminal Aerodrome Forecast
Issued by NWS Knoxville/Tri Cities, TN

Home | Current Version | Previous Version | Text Only | Print | Product List | Glossary On
Versions: 1 2 3 4 5 6 7 8 9 10 11 12 13 14 15 16 17 18 19 20 21 22 23 24 25 26 27 28 29 30
000
FTUS44 KMRX 040805 AAA
TAFTYS
TAF AMD
KTYS 040805Z 0408/0506 22010KT P6SM BKN025 OVC035
      TEMPO 0408/0411 23010KT 4SM -SHRA BR BKN009 OVC025
     FM041100 23010KT 6SM -SHRA BR OVC012
      TEMPO 0412/0416 2SM SHRA BR BKN007
     FM041600 23010KT P6SM VCSH SCT020 BKN080
     FM042200 23008KT P6SM -SHRA BKN035
     FM050100 23005KT P6SM SCT040 BKN100
     FM050300 23009KT 4SM -SHRA BR OVC040=

USA.gov is the U.S. government's official web portal to all federal, state and local government web resources and services.